sensor_id;sensor_type;location;lat;lon;timestamp;pressure;altitude;pressure_sealevel;temperature;humidity
73981;BME280;62348;51.412;5.436;2024-03-08T00:01:14;101591.94;;;4.17;98.85
73981;BME280;62348;51.412;5.436;2024-03-08T00:03:41;101589.69;;;4.14;98.95
73981;BME280;62348;51.412;5.436;2024-03-08T00:06:07;101585.53;;;4.11;99.13
73981;BME280;62348;51.412;5.436;2024-03-08T00:08:32;101589.25;;;4.10;99.70
73981;BME280;62348;51.412;5.436;2024-03-08T00:10:58;101585.72;;;4.09;99.39
73981;BME280;62348;51.412;5.436;2024-03-08T00:13:23;101589.66;;;4.07;98.53
73981;BME280;62348;51.412;5.436;2024-03-08T00:15:50;101584.69;;;4.04;97.90
73981;BME280;62348;51.412;5.436;2024-03-08T00:18:15;101582.41;;;4.01;98.89
73981;BME280;62348;51.412;5.436;2024-03-08T00:20:41;101586.72;;;4.02;98.65
73981;BME280;62348;51.412;5.436;2024-03-08T00:23:07;101578.91;;;4.00;98.68
73981;BME280;62348;51.412;5.436;2024-03-08T00:25:32;101574.59;;;3.99;98.59
73981;BME280;62348;51.412;5.436;2024-03-08T00:27:59;101574.16;;;3.96;98.79
73981;BME280;62348;51.412;5.436;2024-03-08T00:30:25;101569.19;;;3.92;98.43
73981;BME280;62348;51.412;5.436;2024-03-08T00:32:50;101573.91;;;3.90;98.40
73981;BME280;62348;51.412;5.436;2024-03-08T00:35:16;101567.13;;;3.88;98.19
73981;BME280;62348;51.412;5.436;2024-03-08T00:37:41;101561.16;;;3.86;98.40
73981;BME280;62348;51.412;5.436;2024-03-08T00:40:08;101559.69;;;3.83;98.34
73981;BME280;62348;51.412;5.436;2024-03-08T00:42:35;101565.63;;;3.79;98.10
73981;BME280;62348;51.412;5.436;2024-03-08T00:45:00;101565.81;;;3.77;97.71
73981;BME280;62348;51.412;5.436;2024-03-08T00:47:26;101557.16;;;3.75;98.17
73981;BME280;62348;51.412;5.436;2024-03-08T00:49:52;101549.34;;;3.74;98.11
73981;BME280;62348;51.412;5.436;2024-03-08T00:52:18;101543.38;;;3.71;97.20
73981;BME280;62348;51.412;5.436;2024-03-08T00:54:44;101547.47;;;3.67;97.06
73981;BME280;62348;51.412;5.436;2024-03-08T00:57:10;101552.81;;;3.67;97.43
73981;BME280;62348;51.412;5.436;2024-03-08T00:59:37;101541.69;;;3.64;97.43
73981;BME280;62348;51.412;5.436;2024-03-08T01:02:03;101542.72;;;3.63;97.27
73981;BME280;62348;51.412;5.436;2024-03-08T01:04:28;101537.56;;;3.61;98.14
73981;BME280;62348;51.412;5.436;2024-03-08T01:06:55;101538.56;;;3.60;97.51
73981;BME280;62348;51.412;5.436;2024-03-08T01:09:22;101532.59;;;3.58;97.85
73981;BME280;62348;51.412;5.436;2024-03-08T01:11:47;101533.63;;;3.57;97.73
73981;BME280;62348;51.412;5.436;2024-03-08T01:14:13;101534.84;;;3.55;97.88
73981;BME280;62348;51.412;5.436;2024-03-08T01:16:38;101531.53;;;3.52;97.76
73981;BME280;62348;51.412;5.436;2024-03-08T01:19:03;101525.56;;;3.50;97.84
73981;BME280;62348;51.412;5.436;2024-03-08T01:21:29;101525.75;;;3.49;97.78
73981;BME280;62348;51.412;5.436;2024-03-08T01:23:54;101522.69;;;3.45;98.24
73981;BME280;62348;51.412;5.436;2024-03-08T01:26:20;101531.69;;;3.44;97.72
73981;BME280;62348;51.412;5.436;2024-03-08T01:28:45;101521.19;;;3.43;98.29
73981;BME280;62348;51.412;5.436;2024-03-08T01:31:11;101516.44;;;3.38;98.26
73981;BME280;62348;51.412;5.436;2024-03-08T01:33:37;101522.81;;;3.37;97.46
73981;BME280;62348;51.412;5.436;2024-03-08T01:36:03;101513.34;;;3.35;97.57
73981;BME280;62348;51.412;5.436;2024-03-08T01:38:28;101517.25;;;3.32;97.73
73981;BME280;62348;51.412;5.436;2024-03-08T01:40:53;101514.75;;;3.30;97.57
73981;BME280;62348;51.412;5.436;2024-03-08T01:43:26;101509.59;;;3.29;97.68
73981;BME280;62348;51.412;5.436;2024-03-08T01:45:54;101510.63;;;3.28;97.51
73981;BME280;62348;51.412;5.436;2024-03-08T01:48:20;101507.31;;;3.26;96.90
73981;BME280;62348;51.412;5.436;2024-03-08T01:50:49;101500.53;;;3.23;97.54
73981;BME280;62348;51.412;5.436;2024-03-08T01:53:16;101494.56;;;3.21;97.37
73981;BME280;62348;51.412;5.436;2024-03-08T01:55:44;101495.56;;;3.20;97.13
73981;BME280;62348;51.412;5.436;2024-03-08T01:58:11;101498.41;;;3.19;97.69
73981;BME280;62348;51.412;5.436;2024-03-08T02:00:38;101493.69;;;3.14;96.79
73981;BME280;62348;51.412;5.436;2024-03-08T02:03:05;101491.38;;;3.11;96.90
73981;BME280;62348;51.412;5.436;2024-03-08T02:05:31;101489.13;;;3.08;97.12
73981;BME280;62348;51.412;5.436;2024-03-08T02:07:57;101490.13;;;3.07;97.13
73981;BME280;62348;51.412;5.436;2024-03-08T02:10:23;101486.84;;;3.05;97.16
73981;BME280;62348;51.412;5.436;2024-03-08T02:12:48;101481.69;;;3.03;97.32
73981;BME280;62348;51.412;5.436;2024-03-08T02:15:14;101483.53;;;3.03;97.54
73981;BME280;62348;51.412;5.436;2024-03-08T02:17:40;101472.22;;;3.01;97.11
73981;BME280;62348;51.412;5.436;2024-03-08T02:20:06;101468.28;;;2.97;96.91
73981;BME280;62348;51.412;5.436;2024-03-08T02:22:34;101474.44;;;2.97;97.66
73981;BME280;62348;51.412;5.436;2024-03-08T02:25:00;101470.13;;;2.96;97.43
73981;BME280;62348;51.412;5.436;2024-03-08T02:27:28;101466.00;;;2.93;97.81
73981;BME280;62348;51.412;5.436;2024-03-08T02:29:57;101469.06;;;2.90;96.98
73981;BME280;62348;51.412;5.436;2024-03-08T02:32:25;101463.09;;;2.88;97.38
73981;BME280;62348;51.412;5.436;2024-03-08T02:34:51;101452.59;;;2.87;97.57
73981;BME280;62348;51.412;5.436;2024-03-08T02:37:21;101451.13;;;2.84;97.26
73981;BME280;62348;51.412;5.436;2024-03-08T02:39:46;101450.31;;;2.84;98.10
73981;BME280;62348;51.412;5.436;2024-03-08T02:42:11;101449.88;;;2.80;97.21
73981;BME280;62348;51.412;5.436;2024-03-08T02:44:42;101445.56;;;2.79;97.65
73981;BME280;62348;51.412;5.436;2024-03-08T02:47:09;101442.25;;;2.77;97.94
73981;BME280;62348;51.412;5.436;2024-03-08T02:49:35;101438.75;;;2.77;97.36
73981;BME280;62348;51.412;5.436;2024-03-08T02:52:03;101436.28;;;2.75;97.54
73981;BME280;62348;51.412;5.436;2024-03-08T02:54:29;101437.13;;;2.76;97.60
73981;BME280;62348;51.412;5.436;2024-03-08T02:56:54;101428.47;;;2.73;98.26
73981;BME280;62348;51.412;5.436;2024-03-08T02:59:19;101426.81;;;2.72;97.80
73981;BME280;62348;51.412;5.436;2024-03-08T03:01:45;101426.38;;;2.69;97.59
73981;BME280;62348;51.412;5.436;2024-03-08T03:04:10;101417.91;;;2.65;96.89
73981;BME280;62348;51.412;5.436;2024-03-08T03:06:36;101418.94;;;2.64;97.67
73981;BME280;62348;51.412;5.436;2024-03-08T03:09:02;101412.13;;;2.62;97.45
73981;BME280;62348;51.412;5.436;2024-03-08T03:11:27;101406.16;;;2.60;97.36
73981;BME280;62348;51.412;5.436;2024-03-08T03:13:53;101402.88;;;2.58;97.64
73981;BME280;62348;51.412;5.436;2024-03-08T03:16:21;101401.22;;;2.57;97.36
73981;BME280;62348;51.412;5.436;2024-03-08T03:18:47;101397.09;;;2.54;97.84
73981;BME280;62348;51.412;5.436;2024-03-08T03:21:13;101402.66;;;2.52;97.58
73981;BME280;62348;51.412;5.436;2024-03-08T03:23:42;101397.50;;;2.51;97.41
73981;BME280;62348;51.412;5.436;2024-03-08T03:26:10;101395.00;;;2.49;97.78
73981;BME280;62348;51.412;5.436;2024-03-08T03:28:38;101400.72;;;2.46;97.57
73981;BME280;62348;51.412;5.436;2024-03-08T03:31:07;101394.56;;;2.46;97.83
73981;BME280;62348;51.412;5.436;2024-03-08T03:33:35;101393.94;;;2.44;97.12
73981;BME280;62348;51.412;5.436;2024-03-08T03:36:03;101391.47;;;2.42;97.34
73981;BME280;62348;51.412;5.436;2024-03-08T03:38:29;101386.31;;;2.41;97.65
73981;BME280;62348;51.412;5.436;2024-03-08T03:40:54;101388.53;;;2.37;97.07
73981;BME280;62348;51.412;5.436;2024-03-08T03:43:23;101387.91;;;2.35;97.34
73981;BME280;62348;51.412;5.436;2024-03-08T03:45:49;101388.13;;;2.33;97.26
73981;BME280;62348;51.412;5.436;2024-03-08T03:48:14;101384.59;;;2.33;98.09
73981;BME280;62348;51.412;5.436;2024-03-08T03:50:40;101378.63;;;2.31;96.87
73981;BME280;62348;51.412;5.436;2024-03-08T03:53:06;101379.03;;;2.28;97.20
73981;BME280;62348;51.412;5.436;2024-03-08T03:55:33;101380.06;;;2.27;97.26
73981;BME280;62348;51.412;5.436;2024-03-08T03:57:59;101374.09;;;2.25;96.78
73981;BME280;62348;51.412;5.436;2024-03-08T04:00:26;101373.25;;;2.24;97.24
73981;BME280;62348;51.412;5.436;2024-03-08T04:02:52;101361.97;;;2.22;96.62
73981;BME280;62348;51.412;5.436;2024-03-08T04:05:17;101372.63;;;2.22;96.29
73981;BME280;62348;51.412;5.436;2024-03-08T04:07:43;101364.38;;;2.17;96.43
73981;BME280;62348;51.412;5.436;2024-03-08T04:10:11;101364.56;;;2.15;97.04
73981;BME280;62348;51.412;5.436;2024-03-08T04:12:37;101363.75;;;2.15;97.16
73981;BME280;62348;51.412;5.436;2024-03-08T04:15:03;101366.22;;;2.17;97.35
73981;BME280;62348;51.412;5.436;2024-03-08T04:17:28;101364.75;;;2.14;97.19
73981;BME280;62348;51.412;5.436;2024-03-08T04:19:54;101358.59;;;2.13;97.04
73981;BME280;62348;51.412;5.436;2024-03-08T04:22:20;101348.91;;;2.12;97.66
73981;BME280;62348;51.412;5.436;2024-03-08T04:24:45;101357.78;;;2.13;97.38
73981;BME280;62348;51.412;5.436;2024-03-08T04:27:11;101352.44;;;2.13;96.94
73981;BME280;62348;51.412;5.436;2024-03-08T04:29:37;101353.44;;;2.12;96.88
73981;BME280;62348;51.412;5.436;2024-03-08T04:32:03;101348.09;;;2.12;97.48
73981;BME280;62348;51.412;5.436;2024-03-08T04:34:30;101346.47;;;2.11;96.94
73981;BME280;62348;51.412;5.436;2024-03-08T04:36:58;101346.66;;;2.09;96.68
73981;BME280;62348;51.412;5.436;2024-03-08T04:39:24;101352.38;;;2.06;97.04
73981;BME280;62348;51.412;5.436;2024-03-08T04:41:53;101346.22;;;2.06;97.31
73981;BME280;62348;51.412;5.436;2024-03-08T04:44:19;101339.22;;;2.05;97.09
73981;BME280;62348;51.412;5.436;2024-03-08T04:46:45;101340.06;;;2.05;97.47
73981;BME280;62348;51.412;5.436;2024-03-08T04:49:12;101343.72;;;2.04;96.71
73981;BME280;62348;51.412;5.436;2024-03-08T04:51:38;101344.78;;;2.03;97.84
73981;BME280;62348;51.412;5.436;2024-03-08T04:54:04;101337.59;;;2.04;97.06
73981;BME280;62348;51.412;5.436;2024-03-08T04:56:30;101326.09;;;2.03;98.61
73981;BME280;62348;51.412;5.436;2024-03-08T04:58:55;101336.13;;;2.01;96.95
73981;BME280;62348;51.412;5.436;2024-03-08T05:01:21;101329.94;;;2.01;97.08
73981;BME280;62348;51.412;5.436;2024-03-08T05:03:47;101329.31;;;1.99;97.14
73981;BME280;62348;51.412;5.436;2024-03-08T05:06:17;101325.84;;;1.98;96.60
73981;BME280;62348;51.412;5.436;2024-03-08T05:08:43;101324.16;;;1.97;97.13
73981;BME280;62348;51.412;5.436;2024-03-08T05:11:09;101323.34;;;1.97;96.94
73981;BME280;62348;51.412;5.436;2024-03-08T05:13:34;101315.53;;;1.95;96.55
73981;BME280;62348;51.412;5.436;2024-03-08T05:16:00;101317.56;;;1.93;96.80
73981;BME280;62348;51.412;5.436;2024-03-08T05:18:25;101309.75;;;1.91;96.61
73981;BME280;62348;51.412;5.436;2024-03-08T05:20:53;101307.50;;;1.88;96.97
73981;BME280;62348;51.412;5.436;2024-03-08T05:23:18;101312.19;;;1.86;96.82
73981;BME280;62348;51.412;5.436;2024-03-08T05:25:45;101312.38;;;1.85;96.99
73981;BME280;62348;51.412;5.436;2024-03-08T05:28:12;101307.25;;;1.83;97.52
73981;BME280;62348;51.412;5.436;2024-03-08T05:30:38;101307.25;;;1.83;96.93
73981;BME280;62348;51.412;5.436;2024-03-08T05:33:04;101314.59;;;1.81;97.53
73981;BME280;62348;51.412;5.436;2024-03-08T05:35:29;101315.59;;;1.80;97.32
73981;BME280;62348;51.412;5.436;2024-03-08T05:37:54;101305.16;;;1.79;97.61
73981;BME280;62348;51.412;5.436;2024-03-08T05:40:20;101299.19;;;1.77;97.35
73981;BME280;62348;51.412;5.436;2024-03-08T05:42:45;101304.72;;;1.75;97.01
73981;BME280;62348;51.412;5.436;2024-03-08T05:45:11;101297.72;;;1.74;97.67
73981;BME280;62348;51.412;5.436;2024-03-08T05:47:39;101301.19;;;1.74;97.77
73981;BME280;62348;51.412;5.436;2024-03-08T05:50:05;101297.91;;;1.72;97.45
73981;BME280;62348;51.412;5.436;2024-03-08T05:52:32;101295.03;;;1.74;97.27
73981;BME280;62348;51.412;5.436;2024-03-08T05:54:58;101296.28;;;1.71;97.00
73981;BME280;62348;51.412;5.436;2024-03-08T05:57:24;101290.94;;;1.71;97.01
73981;BME280;62348;51.412;5.436;2024-03-08T05:59:49;101282.50;;;1.68;96.94
73981;BME280;62348;51.412;5.436;2024-03-08T06:02:14;101292.53;;;1.66;97.60
73981;BME280;62348;51.412;5.436;2024-03-08T06:04:47;101297.84;;;1.66;98.07
73981;BME280;62348;51.412;5.436;2024-03-08T06:07:12;101282.69;;;1.66;98.42
73981;BME280;62348;51.412;5.436;2024-03-08T06:09:38;101281.69;;;1.67;98.09
73981;BME280;62348;51.412;5.436;2024-03-08T06:12:04;101275.50;;;1.67;98.61
73981;BME280;62348;51.412;5.436;2024-03-08T06:14:31;101272.84;;;1.67;98.15
73981;BME280;62348;51.412;5.436;2024-03-08T06:16:57;101264.84;;;1.67;98.11
73981;BME280;62348;51.412;5.436;2024-03-08T06:19:22;101268.53;;;1.66;97.68
73981;BME280;62348;51.412;5.436;2024-03-08T06:21:48;101268.53;;;1.66;98.04
73981;BME280;62348;51.412;5.436;2024-03-08T06:24:13;101264.19;;;1.65;97.81
73981;BME280;62348;51.412;5.436;2024-03-08T06:26:40;101259.91;;;1.64;97.75
73981;BME280;62348;51.412;5.436;2024-03-08T06:29:06;101262.56;;;1.64;97.73
73981;BME280;62348;51.412;5.436;2024-03-08T06:31:32;101265.22;;;1.64;97.88
73981;BME280;62348;51.412;5.436;2024-03-08T06:33:57;101267.09;;;1.63;97.91
73981;BME280;62348;51.412;5.436;2024-03-08T06:36:23;101262.75;;;1.62;98.18
73981;BME280;62348;51.412;5.436;2024-03-08T06:38:49;101263.56;;;1.63;98.03
73981;BME280;62348;51.412;5.436;2024-03-08T06:41:14;101258.06;;;1.64;98.28
73981;BME280;62348;51.412;5.436;2024-03-08T06:43:44;101258.69;;;1.66;97.93
73981;BME280;62348;51.412;5.436;2024-03-08T06:46:11;101259.31;;;1.68;97.92
73981;BME280;62348;51.412;5.436;2024-03-08T06:48:39;101254.25;;;1.73;98.72
73981;BME280;62348;51.412;5.436;2024-03-08T06:51:05;101256.94;;;1.80;97.78
73981;BME280;62348;51.412;5.436;2024-03-08T06:53:31;101251.06;;;1.85;97.60
73981;BME280;62348;51.412;5.436;2024-03-08T06:55:57;101256.81;;;1.88;97.33
73981;BME280;62348;51.412;5.436;2024-03-08T06:58:23;101254.78;;;1.90;96.59
73981;BME280;62348;51.412;5.436;2024-03-08T07:00:48;101253.75;;;1.91;97.43
73981;BME280;62348;51.412;5.436;2024-03-08T07:03:17;101263.22;;;1.94;97.16
73981;BME280;62348;51.412;5.436;2024-03-08T07:05:43;101255.88;;;1.96;97.10
73981;BME280;62348;51.412;5.436;2024-03-08T07:08:08;101264.31;;;2.00;96.34
73981;BME280;62348;51.412;5.436;2024-03-08T07:10:34;101257.56;;;2.04;96.73
73981;BME280;62348;51.412;5.436;2024-03-08T07:13:00;101252.03;;;2.05;96.92
73981;BME280;62348;51.412;5.436;2024-03-08T07:15:27;101251.44;;;2.10;97.32
73981;BME280;62348;51.412;5.436;2024-03-08T07:17:53;101252.69;;;2.14;97.08
73981;BME280;62348;51.412;5.436;2024-03-08T07:20:19;101247.41;;;2.21;96.25
73981;BME280;62348;51.412;5.436;2024-03-08T07:22:45;101250.75;;;2.29;97.19
73981;BME280;62348;51.412;5.436;2024-03-08T07:25:16;101238.88;;;2.39;95.59
73981;BME280;62348;51.412;5.436;2024-03-08T07:27:49;101241.19;;;2.48;95.36
73981;BME280;62348;51.412;5.436;2024-03-08T07:30:15;101248.03;;;2.58;94.96
73981;BME280;62348;51.412;5.436;2024-03-08T07:32:59;101241.13;;;2.70;93.77
73981;BME280;62348;51.412;5.436;2024-03-08T07:35:25;101236.63;;;2.77;94.06
73981;BME280;62348;51.412;5.436;2024-03-08T07:37:51;101231.91;;;2.86;94.21
73981;BME280;62348;51.412;5.436;2024-03-08T07:40:18;101230.72;;;2.95;93.84
73981;BME280;62348;51.412;5.436;2024-03-08T07:42:43;101219.66;;;3.05;93.50
73981;BME280;62348;51.412;5.436;2024-03-08T07:45:09;101225.22;;;3.17;93.98
73981;BME280;62348;51.412;5.436;2024-03-08T07:47:35;101220.13;;;3.28;92.66
73981;BME280;62348;51.412;5.436;2024-03-08T07:50:01;101220.56;;;3.45;92.38
73981;BME280;62348;51.412;5.436;2024-03-08T07:52:27;101212.56;;;3.59;91.65
73981;BME280;62348;51.412;5.436;2024-03-08T07:54:52;101213.16;;;3.67;90.55
73981;BME280;62348;51.412;5.436;2024-03-08T07:57:18;101211.09;;;3.76;90.19
73981;BME280;62348;51.412;5.436;2024-03-08T07:59:44;101213.16;;;3.81;88.22
73981;BME280;62348;51.412;5.436;2024-03-08T08:02:10;101209.47;;;3.82;89.63
73981;BME280;62348;51.412;5.436;2024-03-08T08:04:35;101211.28;;;3.88;88.34
73981;BME280;62348;51.412;5.436;2024-03-08T08:07:01;101210.66;;;3.92;88.34
73981;BME280;62348;51.412;5.436;2024-03-08T08:09:26;101202.84;;;3.98;88.84
73981;BME280;62348;51.412;5.436;2024-03-08T08:12:00;101192.75;;;4.06;88.60
73981;BME280;62348;51.412;5.436;2024-03-08T08:14:27;101186.56;;;4.19;88.30
73981;BME280;62348;51.412;5.436;2024-03-08T08:16:54;101190.22;;;4.32;87.72
73981;BME280;62348;51.412;5.436;2024-03-08T08:19:21;101186.06;;;4.42;87.09
73981;BME280;62348;51.412;5.436;2024-03-08T08:21:46;101177.38;;;4.54;86.08
73981;BME280;62348;51.412;5.436;2024-03-08T08:24:12;101185.56;;;4.65;85.69
73981;BME280;62348;51.412;5.436;2024-03-08T08:26:37;101187.38;;;4.78;85.02
73981;BME280;62348;51.412;5.436;2024-03-08T08:29:03;101175.13;;;4.89;85.44
73981;BME280;62348;51.412;5.436;2024-03-08T08:31:28;101179.41;;;4.97;85.38
73981;BME280;62348;51.412;5.436;2024-03-08T08:33:54;101169.88;;;5.07;84.72
73981;BME280;62348;51.412;5.436;2024-03-08T08:36:24;101159.88;;;5.21;84.40
73981;BME280;62348;51.412;5.436;2024-03-08T08:38:49;101160.22;;;5.32;83.55
73981;BME280;62348;51.412;5.436;2024-03-08T08:41:15;101170.63;;;5.46;86.68
73981;BME280;62348;51.412;5.436;2024-03-08T08:43:42;101163.72;;;5.57;83.46
73981;BME280;62348;51.412;5.436;2024-03-08T08:46:10;101166.75;;;5.67;82.86
73981;BME280;62348;51.412;5.436;2024-03-08T08:48:41;101165.03;;;5.73;81.72
73981;BME280;62348;51.412;5.436;2024-03-08T08:51:09;101155.72;;;5.76;81.70
73981;BME280;62348;51.412;5.436;2024-03-08T08:53:41;101159.59;;;5.80;81.19
73981;BME280;62348;51.412;5.436;2024-03-08T08:56:08;101151.13;;;5.83;80.09
73981;BME280;62348;51.412;5.436;2024-03-08T08:58:34;101150.66;;;5.86;81.50
73981;BME280;62348;51.412;5.436;2024-03-08T09:01:00;101145.44;;;5.91;80.78
73981;BME280;62348;51.412;5.436;2024-03-08T09:03:26;101135.72;;;5.97;81.30
73981;BME280;62348;51.412;5.436;2024-03-08T09:05:53;101143.47;;;6.05;79.96
73981;BME280;62348;51.412;5.436;2024-03-08T09:08:18;101136.97;;;6.13;79.37
73981;BME280;62348;51.412;5.436;2024-03-08T09:10:45;101131.09;;;6.22;80.07
73981;BME280;62348;51.412;5.436;2024-03-08T09:13:10;101114.09;;;6.29;79.41
73981;BME280;62348;51.412;5.436;2024-03-08T09:15:36;101119.00;;;6.32;78.70
73981;BME280;62348;51.412;5.436;2024-03-08T09:18:06;101110.50;;;6.35;77.41
73981;BME280;62348;51.412;5.436;2024-03-08T09:20:31;101107.16;;;6.39;78.99
73981;BME280;62348;51.412;5.436;2024-03-08T09:22:57;101105.16;;;6.47;79.12
73981;BME280;62348;51.412;5.436;2024-03-08T09:25:23;101099.94;;;6.52;77.67
73981;BME280;62348;51.412;5.436;2024-03-08T09:27:48;101095.75;;;6.56;77.03
73981;BME280;62348;51.412;5.436;2024-03-08T09:30:15;101086.78;;;6.62;79.30
73981;BME280;62348;51.412;5.436;2024-03-08T09:32:40;101086.25;;;6.72;77.98
73981;BME280;62348;51.412;5.436;2024-03-08T09:35:06;101084.16;;;6.74;76.03
73981;BME280;62348;51.412;5.436;2024-03-08T09:37:33;101076.91;;;6.74;76.02
73981;BME280;62348;51.412;5.436;2024-03-08T09:39:59;101070.22;;;6.77;77.40
73981;BME280;62348;51.412;5.436;2024-03-08T09:42:26;101057.75;;;6.82;76.17
73981;BME280;62348;51.412;5.436;2024-03-08T09:44:51;101049.81;;;6.88;76.53
73981;BME280;62348;51.412;5.436;2024-03-08T09:47:18;101051.00;;;6.92;75.65
73981;BME280;62348;51.412;5.436;2024-03-08T09:49:48;101049.94;;;6.93;76.55
73981;BME280;62348;51.412;5.436;2024-03-08T09:52:14;101035.22;;;6.95;76.03
73981;BME280;62348;51.412;5.436;2024-03-08T09:54:40;101032.88;;;6.99;76.04
73981;BME280;62348;51.412;5.436;2024-03-08T09:57:10;101025.63;;;6.99;75.02
73981;BME280;62348;51.412;5.436;2024-03-08T09:59:35;101029.38;;;6.98;75.30
73981;BME280;62348;51.412;5.436;2024-03-08T10:02:01;101020.75;;;6.96;76.48
73981;BME280;62348;51.412;5.436;2024-03-08T10:04:28;101013.84;;;7.00;76.08
73981;BME280;62348;51.412;5.436;2024-03-08T10:06:57;101016.88;;;7.04;75.02
73981;BME280;62348;51.412;5.436;2024-03-08T10:09:24;101002.97;;;7.07;75.59
73981;BME280;62348;51.412;5.436;2024-03-08T10:12:01;101011.97;;;7.13;76.62
73981;BME280;62348;51.412;5.436;2024-03-08T10:14:28;101008.00;;;7.15;74.81
73981;BME280;62348;51.412;5.436;2024-03-08T10:16:53;101009.16;;;7.19;76.49
73981;BME280;62348;51.412;5.436;2024-03-08T10:19:19;100996.06;;;7.23;76.48
73981;BME280;62348;51.412;5.436;2024-03-08T10:21:51;100999.44;;;7.30;75.85
73981;BME280;62348;51.412;5.436;2024-03-08T10:24:22;100997.81;;;7.29;75.58
73981;BME280;62348;51.412;5.436;2024-03-08T10:27:00;100991.72;;;7.34;77.12
73981;BME280;62348;51.412;5.436;2024-03-08T10:29:32;100988.00;;;7.35;74.75
73981;BME280;62348;51.412;5.436;2024-03-08T10:31:58;100971.63;;;7.36;76.02
73981;BME280;62348;51.412;5.436;2024-03-08T10:34:25;100980.63;;;7.42;75.16
73981;BME280;62348;51.412;5.436;2024-03-08T10:36:51;100969.38;;;7.45;74.09
73981;BME280;62348;51.412;5.436;2024-03-08T10:39:22;100966.22;;;7.48;75.06
73981;BME280;62348;51.412;5.436;2024-03-08T10:41:56;100965.16;;;7.49;72.82
73981;BME280;62348;51.412;5.436;2024-03-08T10:47:01;100957.31;;;7.59;74.43
73981;BME280;62348;51.412;5.436;2024-03-08T10:49:38;100945.34;;;7.67;72.95
73981;BME280;62348;51.412;5.436;2024-03-08T10:52:05;100937.13;;;7.74;72.46
73981;BME280;62348;51.412;5.436;2024-03-08T10:54:34;100938.31;;;7.78;70.79
73981;BME280;62348;51.412;5.436;2024-03-08T10:57:05;100942.59;;;7.79;70.08
73981;BME280;62348;51.412;5.436;2024-03-08T10:59:31;100921.88;;;7.79;68.97
73981;BME280;62348;51.412;5.436;2024-03-08T11:01:59;100910.88;;;7.81;68.69
73981;BME280;62348;51.412;5.436;2024-03-08T11:04:25;100919.88;;;7.87;69.58
73981;BME280;62348;51.412;5.436;2024-03-08T11:06:51;100909.44;;;7.90;70.25
73981;BME280;62348;51.412;5.436;2024-03-08T11:09:29;100911.16;;;7.96;71.37
73981;BME280;62348;51.412;5.436;2024-03-08T11:14:43;100914.97;;;8.12;69.54
73981;BME280;62348;51.412;5.436;2024-03-08T11:17:09;100909.34;;;8.14;68.73
73981;BME280;62348;51.412;5.436;2024-03-08T11:19:35;100905.34;;;8.16;67.79
73981;BME280;62348;51.412;5.436;2024-03-08T11:22:01;100904.84;;;8.19;67.92
73981;BME280;62348;51.412;5.436;2024-03-08T11:24:28;100895.47;;;8.22;70.17
73981;BME280;62348;51.412;5.436;2024-03-08T11:27:03;100906.63;;;8.31;69.55
73981;BME280;62348;51.412;5.436;2024-03-08T11:32:15;100891.06;;;8.33;69.30
73981;BME280;62348;51.412;5.436;2024-03-08T11:34:43;100898.06;;;8.34;70.10
73981;BME280;62348;51.412;5.436;2024-03-08T11:37:16;100881.66;;;8.35;66.45
73981;BME280;62348;51.412;5.436;2024-03-08T11:39:53;100890.31;;;8.37;72.60
73981;BME280;62348;51.412;5.436;2024-03-08T11:42:24;100875.72;;;8.33;66.44
73981;BME280;62348;51.412;5.436;2024-03-08T11:44:52;100875.94;;;8.32;66.74
73981;BME280;62348;51.412;5.436;2024-03-08T11:47:18;100864.94;;;8.33;67.58
73981;BME280;62348;51.412;5.436;2024-03-08T11:49:44;100870.66;;;8.37;69.37
73981;BME280;62348;51.412;5.436;2024-03-08T11:52:13;100871.78;;;8.41;66.51
73981;BME280;62348;51.412;5.436;2024-03-08T11:54:39;100858.91;;;8.43;66.73
73981;BME280;62348;51.412;5.436;2024-03-08T11:57:05;100870.28;;;8.45;64.79
73981;BME280;62348;51.412;5.436;2024-03-08T11:59:31;100860.81;;;8.43;66.33
73981;BME280;62348;51.412;5.436;2024-03-08T12:02:05;100849.50;;;8.46;67.47
73981;BME280;62348;51.412;5.436;2024-03-08T12:04:32;100854.44;;;8.49;66.41
73981;BME280;62348;51.412;5.436;2024-03-08T12:07:01;100841.53;;;8.51;65.62
73981;BME280;62348;51.412;5.436;2024-03-08T12:09:28;100848.28;;;8.53;66.88
73981;BME280;62348;51.412;5.436;2024-03-08T12:11:54;100848.84;;;8.55;67.57
73981;BME280;62348;51.412;5.436;2024-03-08T12:14:19;100849.44;;;8.57;67.09
73981;BME280;62348;51.412;5.436;2024-03-08T12:16:46;100848.38;;;8.58;64.49
73981;BME280;62348;51.412;5.436;2024-03-08T12:19:11;100824.09;;;8.58;64.57
73981;BME280;62348;51.412;5.436;2024-03-08T12:21:37;100822.50;;;8.57;64.10
73981;BME280;62348;51.412;5.436;2024-03-08T12:24:07;100829.75;;;8.57;65.66
73981;BME280;62348;51.412;5.436;2024-03-08T12:26:37;100818.47;;;8.60;65.25
73981;BME280;62348;51.412;5.436;2024-03-08T12:29:29;100821.25;;;8.65;69.75
73981;BME280;62348;51.412;5.436;2024-03-08T12:31:57;100820.50;;;8.70;66.00
73981;BME280;62348;51.412;5.436;2024-03-08T12:34:26;100820.50;;;8.70;63.91
73981;BME280;62348;51.412;5.436;2024-03-08T12:36:53;100816.16;;;8.69;64.43
73981;BME280;62348;51.412;5.436;2024-03-08T12:39:22;100798.13;;;8.69;65.33
73981;BME280;62348;51.412;5.436;2024-03-08T12:41:54;100781.13;;;8.69;66.01
73981;BME280;62348;51.412;5.436;2024-03-08T12:44:22;100790.59;;;8.71;64.99
73981;BME280;62348;51.412;5.436;2024-03-08T12:46:48;100797.59;;;8.72;65.27
73981;BME280;62348;51.412;5.436;2024-03-08T12:49:14;100788.47;;;8.73;65.27
73981;BME280;62348;51.412;5.436;2024-03-08T12:51:46;100785.53;;;8.75;63.98
73981;BME280;62348;51.412;5.436;2024-03-08T12:54:12;100790.91;;;8.75;64.79
73981;BME280;62348;51.412;5.436;2024-03-08T12:56:37;100789.03;;;8.75;64.89
73981;BME280;62348;51.412;5.436;2024-03-08T12:59:04;100779.06;;;8.76;65.35
73981;BME280;62348;51.412;5.436;2024-03-08T13:01:31;100769.09;;;8.76;65.63
73981;BME280;62348;51.412;5.436;2024-03-08T13:04:02;100763.19;;;8.79;65.61
73981;BME280;62348;51.412;5.436;2024-03-08T13:06:29;100755.44;;;8.83;66.30